Patuxent River Naval Air Station/Trapnell Field Aiport
KNHK : now visible

Airfield :











YOU CAN JOIN US ON...

 
LOGIN :

Register | Disclaimer

   EN    FR    IT 

 









Legend :    VFR   Marginal VFR   IFR   Intensive IFR   Very Intensive IFR
Visi :
Ceiling :
>= 8 km
>= 3000ft
5 to 8 km
1000 to 3000 ft
1500m to 5 km
500 to 1000 ft
800 to 1500m
200 to 500 ft
< 800m
< 200 ft
Symbols :   Thunderstorms  Fog  Heavy snow  Heavy precipitations  Wind > 20 kt






- Airport Elevation : 39 ft


KNHK - Patuxent River Naval Air Station/Trapnell Field Aiport

CURRENT METAR :
  • 222252Z 25004KT 10SM BKN070 BKN280 18/11 A2994 RMK AO2 SLP138 T01780111

EXPIRED METARs :
  • 222152Z 28003KT 10SM BKN070 BKN280 19/10 A2993 RMK AO2 SLP136 T01940100

TAF TAF KNHK
Valid from the 22 at 23:00 until the 23 at 23:00 UTC


2223/2323 VRB05KT 9999 BKN070 BKN280 QNH2990INS
BECMG 2302/2304 34005KT 9999 FEW070 QNH2990INS
BECMG 2307/2309 34005KT 9999 BKN050 BKN070 BKN280 QNH2989INS
BECMG 2312/2314 27006KT 9999 FEW040 QNH2993INS AUTOMATED SENSOR METWATCH 2303 TIL 2308 T13/2311Z T21/2320Z FN20066
KZDC FIR / North America



MET'MAP, your aeronautical weather chart ! - Copyright ORBIFLY December 2007 - Disclaimer

ORBIFLY MET'MAP TEAM :

Programming & Development : Alexandra Zaïnal
Concept & original design : Baudouin d'Aumeries
Assistance for programming : Marc-Olivier Méhu
Technical & hardware support : Manuel Goepfert

Contact : metmap@orbifly.com




SOURCES & CREDITS :

   NOAA       Earth
Advisory